Weather History for Indianapolis, IN

Change the Weather History Date:

Thursday, December 15, 2011

  Actual Average (KEYE) Record (KEYE)
Temperature  
Mean Temperature 46 °F 32 °F  
Max Temperature 59 °F 38 °F 60 °F (2011)
Min Temperature 33 °F 25 °F 0 °F (2010)
Degree Days  
Heating Degree Days 19 34  
Month to date heating degree days 465  
Since 1 July heating degree days 1489  
Cooling Degree Days 0 0  
Month to date cooling degree days 0  
Year to date cooling degree days 1058  
Moisture  
Dew Point 46 °F    
Average Humidity 87    
Maximum Humidity 94    
Minimum Humidity 76    
Precipitation  
Precipitation 0.31 in 0.07 in 0.70 in (1993)
Month to date precipitation 1.24  
Year to date precipitation 38.95  
Sea Level Pressure  
Sea Level Pressure 29.91 in    
Wind  
Wind Speed 19 mph (WSW)    
Max Wind Speed 25 mph    
Max Gust Speed 37 mph    
Visibility 8 miles    
Events Rain    
T = Trace of Precipitation, MM = Missing Value Source: NWS Daily Summary

Daily Weather History Graph

Daily Weather History Graph

Search for Another Location

Airport:

Trip Planner

Search our weather history database for the weather conditions in past years. The results will help you decide how hot, cold, wet, or windy it might be!

Date:

Astronomy

Dec. 15, 2011 Rise Set
Actual Time 7:59 AM EST 5:20 PM EST
Civil Twilight 7:29 AM EST 5:51 PM EST
Nautical Twilight 6:55 AM EST 6:25 PM EST
Astronomical Twilight 6:22 AM EST 6:58 PM EST
Moon 10:46 PM EST (12/15) 11:15 AM EST (12/15)
Length of Visible Light 10h 21m
Length of Day
9h 20m
Waning Gibbous, 75% of the Moon is Illuminated
Dec 15
Waning Gibbous
Dec 17
Last Quarter
Dec 24
New
Jan 1
First Quarter
Jan 9
Full

Hourly Weather History & Observations

Time (EST) Temp. Windchill Dew Point Humidity Pressure Visibility Wind Dir Wind Speed Gust Speed Precip Events Conditions
12:15 AM 55.9 °F - 54.1 °F 94% 29.89 in 4.0 mi SSW 18.4 mph 26.5 mph 0.07 in Rain Rain
12:35 AM 55.9 °F - 54.1 °F 94% 29.87 in 4.0 mi SSW 20.7 mph 29.9 mph 0.15 in Rain Heavy Rain
12:55 AM 55.8 °F - 54.0 °F 94% 29.86 in 7.0 mi SSW 17.3 mph 34.5 mph 0.18 in Rain Rain
1:15 AM 55.9 °F - 54.1 °F 94% 29.85 in 10.0 mi South 20.7 mph 28.8 mph 0.01 in Rain Rain
1:35 AM 56.5 °F - 54.5 °F 93% 29.84 in 10.0 mi SSW 23.0 mph 33.4 mph 0.01 in Rain Light Rain
1:55 AM 56.7 °F - 54.7 °F 93% 29.82 in 10.0 mi SSW 21.9 mph 28.8 mph 0.02 in Rain Rain
2:15 AM 56.8 °F - 54.7 °F 92% 29.82 in 7.0 mi SSW 19.6 mph 31.1 mph 0.01 in Rain Rain
2:35 AM 57.2 °F - 55.0 °F 92% 29.82 in 7.0 mi SSW 20.7 mph 28.8 mph 0.02 in Rain Light Rain
2:55 AM 57.4 °F - 55.4 °F 93% 29.80 in 10.0 mi SSW 19.6 mph 29.9 mph 0.03 in   Overcast
3:15 AM 57.6 °F - 55.4 °F 92% 29.80 in 10.0 mi SSW 20.7 mph 31.1 mph N/A   Overcast
3:35 AM 58.1 °F - 55.4 °F 91% 29.80 in 10.0 mi SSW 24.2 mph 33.4 mph N/A   Overcast
3:55 AM 58.1 °F - 55.4 °F 91% 29.79 in 10.0 mi SSW 21.9 mph 29.9 mph N/A   Overcast
4:15 AM 57.9 °F - 55.4 °F 91% 29.79 in 4.0 mi SSW 20.7 mph 33.4 mph N/A Rain Rain
4:35 AM 57.7 °F - 55.4 °F 92% 29.78 in 4.0 mi SSW 20.7 mph 33.4 mph 0.01 in Rain Rain
4:55 AM 57.4 °F - 55.4 °F 93% 29.79 in 3.0 mi SSW 21.9 mph 29.9 mph 0.02 in Rain Light Rain
5:15 AM 57.4 °F - 55.4 °F 93% 29.79 in 5.0 mi SSW 20.7 mph 28.8 mph N/A Rain Rain
5:35 AM 57.4 °F - 55.4 °F 93% 29.78 in 3.0 mi SW 25.3 mph 31.1 mph 0.01 in Rain Light Rain
5:55 AM 57.2 °F - 55.4 °F 94% 29.78 in 4.0 mi SW 19.6 mph 26.5 mph 0.01 in   Drizzle
6:15 AM 57.4 °F - 55.6 °F 94% 29.78 in 4.0 mi SSW 20.7 mph 25.3 mph N/A Rain Rain
6:35 AM 57.4 °F - 55.6 °F 94% 29.78 in 3.0 mi SW 16.1 mph 26.5 mph N/A Rain Rain
6:55 AM 57.4 °F - 55.6 °F 94% 29.79 in 4.0 mi SSW 16.1 mph 24.2 mph N/A   Drizzle
7:15 AM 57.4 °F - 55.8 °F 94% 29.78 in 5.0 mi SW 16.1 mph 23.0 mph N/A   Light Drizzle
7:35 AM 57.6 °F - 55.9 °F 94% 29.78 in 7.0 mi SW 16.1 mph 23.0 mph N/A Rain Light Rain
7:55 AM 58.1 °F - 56.3 °F 94% 29.79 in 7.0 mi SW 16.1 mph 27.6 mph 0.01 in Rain Light Rain
8:15 AM 58.1 °F - 56.3 °F 94% 29.79 in 10.0 mi SW 19.6 mph 25.3 mph N/A   Overcast
8:35 AM 58.1 °F - 56.3 °F 94% 29.78 in 10.0 mi SW 18.4 mph 24.2 mph N/A   Overcast
9:15 AM 58.3 °F - 55.9 °F 92% 29.79 in 10.0 mi SW 17.3 mph 28.8 mph N/A   Mostly Cloudy
9:35 AM 59.0 °F - 56.3 °F 91% 29.79 in 10.0 mi SW 18.4 mph 27.6 mph N/A   Mostly Cloudy
10:15 AM 58.6 °F - 54.7 °F 87% 29.82 in 3.0 mi West 19.6 mph 35.7 mph 0.03 in Rain Rain
10:35 AM 54.9 °F - 52.0 °F 90% 29.84 in 7.0 mi West 19.6 mph 26.5 mph 0.04 in   Overcast
10:55 AM 53.6 °F - 50.9 °F 91% 29.84 in 7.0 mi West 21.9 mph 28.8 mph 0.04 in   Light Drizzle
11:15 AM 53.6 °F - 50.0 °F 88% 29.86 in 10.0 mi West 18.4 mph 32.2 mph N/A   Overcast
11:35 AM 54.1 °F - 49.8 °F 85% 29.86 in 10.0 mi West 23.0 mph 36.8 mph N/A   Mostly Cloudy
11:55 AM 53.8 °F - 49.1 °F 84% 29.87 in 10.0 mi West 13.8 mph 25.3 mph N/A   Overcast
12:15 PM 52.9 °F - 48.2 °F 84% 29.87 in 10.0 mi West 18.4 mph 33.4 mph N/A   Overcast
12:35 PM 49.8 °F - 46.4 °F 88% 29.88 in 10.0 mi West 15.0 mph 27.6 mph N/A   Overcast
12:55 PM 47.3 °F - 44.6 °F 90% 29.89 in 7.0 mi WNW 16.1 mph 25.3 mph N/A   Overcast
1:15 PM 45.9 °F 38.5 °F 43.2 °F 90% 29.91 in 7.0 mi West 18.4 mph 27.6 mph N/A   Overcast
1:35 PM 45.3 °F 38.7 °F 42.8 °F 91% 29.91 in 7.0 mi West 15.0 mph 25.3 mph N/A   Overcast
2:15 PM 44.2 °F 36.7 °F 41.0 °F 88% 29.92 in 10.0 mi WNW 17.3 mph 27.6 mph N/A   Overcast
2:35 PM 43.0 °F 34.5 °F 39.2 °F 86% 29.94 in 10.0 mi West 19.6 mph 31.1 mph N/A   Overcast
2:55 PM 42.4 °F 33.5 °F 37.6 °F 83% 29.96 in 10.0 mi West 20.7 mph 31.1 mph N/A   Overcast
3:15 PM 42.3 °F 33.8 °F 37.0 °F 82% 29.97 in 10.0 mi West 18.4 mph 29.9 mph N/A   Overcast
3:35 PM 41.9 °F 33.7 °F 36.5 °F 81% 29.98 in 10.0 mi West 17.3 mph 31.1 mph N/A   Overcast
3:55 PM 41.5 °F 32.9 °F 36.0 °F 81% 29.99 in 10.0 mi West 18.4 mph 31.1 mph N/A   Overcast
4:15 PM 41.2 °F 33.7 °F 35.8 °F 81% 30.01 in 10.0 mi West 13.8 mph 21.9 mph N/A   Overcast
4:35 PM 40.3 °F 31.0 °F 33.3 °F 76% 30.03 in 10.0 mi West 19.6 mph 33.4 mph N/A   Overcast
4:55 PM 39.7 °F 29.5 °F 33.3 °F 78% 30.04 in 10.0 mi West 23.0 mph 31.1 mph N/A   Overcast
5:15 PM 38.8 °F 29.1 °F 32.4 °F 78% 30.06 in 10.0 mi West 19.6 mph 31.1 mph N/A   Overcast
5:35 PM 38.5 °F 29.9 °F 32.2 °F 78% 30.07 in 10.0 mi West 15.0 mph 27.6 mph N/A   Overcast
5:55 PM 38.3 °F 28.4 °F 32.2 °F 79% 30.07 in 10.0 mi West 19.6 mph 29.9 mph N/A   Overcast
6:15 PM 37.8 °F 28.6 °F 32.0 °F 80% 30.08 in 10.0 mi WNW 16.1 mph 24.2 mph N/A   Overcast
6:35 PM 37.4 °F 27.2 °F 32.0 °F 81% 30.10 in 10.0 mi West 19.6 mph 28.8 mph N/A   Overcast
6:55 PM 35.6 °F 25.2 °F 31.1 °F 84% 30.11 in 10.0 mi WNW 18.4 mph 31.1 mph N/A   Overcast
7:15 PM 34.7 °F 24.0 °F 30.0 °F 83% 30.13 in 10.0 mi WNW 18.4 mph 26.5 mph N/A   Overcast
7:35 PM 34.0 °F 23.4 °F 28.4 °F 80% 30.14 in 10.0 mi WNW 17.3 mph 27.6 mph N/A   Overcast
7:55 PM 34.0 °F 23.0 °F 27.5 °F 77% 30.15 in 10.0 mi WNW 18.4 mph 27.6 mph N/A   Overcast
8:15 PM 34.0 °F 23.8 °F 27.5 °F 77% 30.16 in 10.0 mi WNW 16.1 mph 26.5 mph N/A   Overcast
8:35 PM 34.0 °F 25.0 °F 27.5 °F 77% 30.18 in 10.0 mi WNW 12.7 mph 21.9 mph N/A   Overcast
8:55 PM 33.8 °F 25.8 °F 27.1 °F 77% 30.18 in 10.0 mi WNW 10.4 mph 25.3 mph N/A   Overcast
9:15 PM 33.8 °F 23.2 °F 27.0 °F 76% 30.19 in 10.0 mi WNW 17.3 mph 24.2 mph N/A   Overcast
9:35 PM 33.4 °F 22.7 °F 26.6 °F 76% 30.19 in 10.0 mi WNW 17.3 mph 21.9 mph N/A   Mostly Cloudy
9:55 PM 33.4 °F 24.3 °F 26.6 °F 76% 30.20 in 10.0 mi WNW 12.7 mph 18.4 mph N/A   Mostly Cloudy
10:15 PM 33.4 °F 24.3 °F 27.0 °F 77% 30.21 in 10.0 mi WNW 12.7 mph 17.3 mph N/A   Overcast
10:35 PM 33.8 °F 25.8 °F 27.0 °F 76% 30.21 in 10.0 mi WNW 10.4 mph 21.9 mph N/A   Overcast
10:55 PM 33.4 °F 23.9 °F 27.3 °F 78% 30.22 in 10.0 mi WNW 13.8 mph 19.6 mph N/A   Overcast
11:15 PM 33.3 °F 23.2 °F 27.3 °F 79% 30.22 in 10.0 mi WNW 15.0 mph - N/A   Mostly Cloudy
11:35 PM 32.9 °F 24.1 °F 27.0 °F 79% 30.23 in 10.0 mi WNW 11.5 mph 17.3 mph N/A   Clear
11:55 PM 32.9 °F 23.7 °F 26.6 °F 78% 30.23 in 10.0 mi WNW 12.7 mph 19.6 mph N/A   Clear